Belcher, Louisiana
Current Conditions -  °F | °C
As of 6:53 PM on Friday 28 Nov 2014 (Local Time) from KDTN Reporting Station
Clear Clear  
Wind Chill: 56°   Ceiling: Unl
Heat Index: 56°   Visibility: 10mi
Dew Point: 44°   Wind: 12mph
Humidity: 64%   Direction: 170°S
Pressure: 30.12"   Gusts: NA
Location:  32.75°N, 93.83°W
Report Text: KDTN 290053Z AUTO 17010KT 10SM CLR 13/07 A3012 RMK AO2 SLP200 T01330067
Loading
Personal Weather Stations






























Interactive Weather Map New forecast layout! Learn more

10-Day Weather Forecast

Advertisements
Track Severe Weather on mobile